Time;durP1;ratioP1;P1;durP2;ratioP2;P2;SDS_P1;SDS_P2;PMS_P1;PMS_P2;Temp;Humidity;BMP_temperature;BMP_pressure;BME280_temperature;BME280_humidity;BME280_pressure;Samples;Min_cycle;Max_cycle;Signal;HPM_P1;HPM_P2
2023/12/29 00:02:22;;;;;;;13.38;3.42;;;;;;;;;;4989424;28;20042;-84
2023/12/29 00:04:48;;;;;;;17.88;4.43;;;;;;;;;;4957207;28;20100;-83
2023/12/29 00:07:15;;;;;;;15.05;3.35;;;;;;;;;;4971455;28;20033;-84
2023/12/29 00:09:41;;;;;;;17.25;3.42;;;;;;;;;;4984891;28;20034;-82
2023/12/29 00:12:08;;;;;;;13.50;3.25;;;;;;;;;;4970989;28;20037;-84
2023/12/29 00:14:37;;;;;;;18.67;3.78;;;;;;;;;;4971956;28;20490;-85
2023/12/29 00:17:03;;;;;;;13.77;3.60;;;;;;;;;;4969658;28;20402;-84
2023/12/29 00:19:29;;;;;;;10.65;3.35;;;;;;;;;;4964439;28;20042;-82
2023/12/29 00:21:55;;;;;;;16.02;3.22;;;;;;;;;;4985352;28;20041;-85
2023/12/29 00:24:22;;;;;;;15.88;3.33;;;;;;;;;;4987562;28;20176;-81
2023/12/29 00:26:48;;;;;;;15.00;3.17;;;;;;;;;;4970360;28;20122;-83
2023/12/29 00:29:17;;;;;;;13.00;3.35;;;;;;;;;;4985761;28;20497;-84
2023/12/29 00:31:43;;;;;;;12.05;2.33;;;;;;;;;;4984440;28;20046;-84
2023/12/29 00:34:09;;;;;;;17.33;3.58;;;;;;;;;;4987060;28;20074;-84
2023/12/29 00:36:35;;;;;;;22.58;3.45;;;;;;;;;;4992919;28;20131;-84
2023/12/29 00:39:01;;;;;;;11.75;2.50;;;;;;;;;;4971924;28;20448;-84
2023/12/29 00:41:27;;;;;;;9.30;2.15;;;;;;;;;;4973532;28;20338;-85
2023/12/29 00:43:53;;;;;;;12.07;2.45;;;;;;;;;;4974727;28;20167;-85
2023/12/29 00:46:20;;;;;;;16.55;3.97;;;;;;;;;;4986190;28;20046;-79
2023/12/29 00:48:46;;;;;;;15.02;2.80;;;;;;;;;;4957152;28;20056;-83
2023/12/29 00:51:12;;;;;;;14.65;3.33;;;;;;;;;;4983756;28;20182;-82
2023/12/29 00:53:38;;;;;;;16.58;3.30;;;;;;;;;;4975864;28;20050;-83
2023/12/29 00:56:10;;;;;;;18.63;3.05;;;;;;;;;;4971303;28;20184;-81
2023/12/29 00:58:36;;;;;;;13.10;3.30;;;;;;;;;;4989541;28;20046;-84
2023/12/29 01:01:02;;;;;;;16.58;4.43;;;;;;;;;;4983241;28;20046;-84
2023/12/29 01:03:28;;;;;;;11.40;2.70;;;;;;;;;;4987103;28;20045;-78
2023/12/29 01:05:54;;;;;;;13.50;2.72;;;;;;;;;;4973269;28;20053;-76
2023/12/29 01:08:20;;;;;;;12.50;2.10;;;;;;;;;;4984376;28;20619;-77
2023/12/29 01:10:46;;;;;;;11.75;2.42;;;;;;;;;;4969529;28;20066;-76
2023/12/29 01:13:12;;;;;;;10.82;3.05;;;;;;;;;;4957065;28;20052;-78
2023/12/29 01:15:40;;;;;;;10.85;2.70;;;;;;;;;;4989474;28;21827;-77
2023/12/29 01:18:06;;;;;;;14.85;2.67;;;;;;;;;;4986790;28;20041;-77
2023/12/29 01:20:32;;;;;;;13.15;3.05;;;;;;;;;;4990800;28;20048;-77
2023/12/29 01:22:58;;;;;;;12.77;2.20;;;;;;;;;;4987686;28;20050;-77
2023/12/29 01:25:24;;;;;;;19.50;3.55;;;;;;;;;;4974033;28;20046;-77
2023/12/29 01:27:50;;;;;;;18.15;3.10;;;;;;;;;;4985710;28;20057;-76
2023/12/29 01:30:16;;;;;;;20.83;3.28;;;;;;;;;;4959640;28;20127;-76
2023/12/29 01:32:42;;;;;;;15.95;2.67;;;;;;;;;;4969382;28;20053;-77
2023/12/29 01:35:09;;;;;;;10.00;2.08;;;;;;;;;;4958921;28;20175;-76
2023/12/29 01:37:35;;;;;;;10.57;2.28;;;;;;;;;;4957539;28;20177;-75
2023/12/29 01:40:01;;;;;;;16.35;3.10;;;;;;;;;;4989127;28;20045;-76
2023/12/29 01:42:27;;;;;;;14.05;2.75;;;;;;;;;;4960020;28;20398;-76
2023/12/29 01:44:54;;;;;;;15.48;3.03;;;;;;;;;;4989117;28;20050;-75
2023/12/29 01:47:21;;;;;;;15.15;2.70;;;;;;;;;;4974959;28;20060;-77
2023/12/29 01:49:48;;;;;;;15.80;3.22;;;;;;;;;;4987541;28;20090;-76
2023/12/29 01:52:16;;;;;;;16.40;3.33;;;;;;;;;;4984117;28;20040;-82
2023/12/29 01:54:44;;;;;;;16.75;4.25;;;;;;;;;;4982728;28;20050;-84
2023/12/29 01:57:10;;;;;;;20.38;3.22;;;;;;;;;;4986563;28;20490;-81
2023/12/29 01:59:37;;;;;;;14.88;2.95;;;;;;;;;;4984254;28;20572;-82
2023/12/29 02:02:03;;;;;;;16.08;3.17;;;;;;;;;;4984383;28;20125;-80
2023/12/29 02:04:31;;;;;;;18.55;2.85;;;;;;;;;;4967798;28;20050;-83
2023/12/29 02:06:57;;;;;;;17.42;3.70;;;;;;;;;;4986006;28;20034;-81
2023/12/29 02:09:23;;;;;;;20.15;3.97;;;;;;;;;;4956223;28;20510;-83
2023/12/29 02:11:50;;;;;;;18.90;4.65;;;;;;;;;;4969254;28;20101;-83
2023/12/29 02:14:16;;;;;;;20.17;4.30;;;;;;;;;;4974136;28;20037;-76
2023/12/29 02:16:42;;;;;;;19.23;3.97;;;;;;;;;;4986190;28;20053;-75
2023/12/29 02:19:14;;;;;;;11.65;2.45;;;;;;;;;;4983022;28;20121;-77
2023/12/29 02:21:40;;;;;;;13.23;2.55;;;;;;;;;;4987913;28;20030;-76
2023/12/29 02:24:06;;;;;;;7.88;1.95;;;;;;;;;;4959277;28;20175;-77
2023/12/29 02:26:35;;;;;;;12.52;2.33;;;;;;;;;;4986699;28;20041;-77
2023/12/29 02:29:03;;;;;;;7.22;2.05;;;;;;;;;;4986396;28;20042;-74
2023/12/29 02:31:31;;;;;;;8.80;1.75;;;;;;;;;;4982548;28;20042;-77
2023/12/29 02:33:58;;;;;;;7.20;1.95;;;;;;;;;;4986021;28;20503;-75
2023/12/29 02:36:24;;;;;;;9.38;1.45;;;;;;;;;;4986301;28;20128;-75
2023/12/29 02:38:50;;;;;;;7.68;1.50;;;;;;;;;;4991150;28;20072;-75
2023/12/29 02:41:16;;;;;;;8.15;1.30;;;;;;;;;;4954947;28;20061;-75
2023/12/29 02:43:42;;;;;;;7.03;1.50;;;;;;;;;;4970450;28;20065;-75
2023/12/29 02:46:09;;;;;;;5.82;1.88;;;;;;;;;;4982503;28;20124;-77
2023/12/29 02:48:35;;;;;;;7.00;1.25;;;;;;;;;;4972412;28;20045;-76
2023/12/29 02:51:01;;;;;;;11.32;2.72;;;;;;;;;;4989109;28;20069;-76
2023/12/29 02:53:27;;;;;;;7.90;1.55;;;;;;;;;;4984969;28;20109;-77
2023/12/29 02:55:53;;;;;;;7.93;2.65;;;;;;;;;;4975078;28;20476;-75
2023/12/29 02:58:20;;;;;;;16.48;2.28;;;;;;;;;;4973061;28;20042;-76
2023/12/29 03:00:46;;;;;;;9.73;1.95;;;;;;;;;;4988768;28;20510;-75
2023/12/29 03:03:12;;;;;;;10.68;2.55;;;;;;;;;;4956721;28;20103;-76
2023/12/29 03:05:38;;;;;;;13.77;2.20;;;;;;;;;;4958550;28;20068;-76
2023/12/29 03:08:04;;;;;;;16.48;3.15;;;;;;;;;;4984638;28;20511;-77
2023/12/29 03:10:31;;;;;;;12.02;2.22;;;;;;;;;;4969771;28;20038;-77
2023/12/29 03:12:57;;;;;;;12.90;1.90;;;;;;;;;;4969527;28;20042;-76
2023/12/29 03:15:23;;;;;;;13.25;2.53;;;;;;;;;;4973969;28;20049;-75
2023/12/29 03:17:49;;;;;;;14.27;3.95;;;;;;;;;;4956000;28;20045;-75
2023/12/29 03:20:18;;;;;;;13.00;2.85;;;;;;;;;;4992032;28;20038;-75
2023/12/29 03:22:44;;;;;;;16.25;3.45;;;;;;;;;;4983178;28;20050;-75
2023/12/29 03:25:10;;;;;;;16.83;3.50;;;;;;;;;;4984296;28;20118;-76
2023/12/29 03:27:36;;;;;;;13.60;2.40;;;;;;;;;;4971883;28;20084;-75
2023/12/29 03:30:02;;;;;;;12.60;3.60;;;;;;;;;;4959974;28;20501;-74
2023/12/29 03:32:28;;;;;;;20.92;3.15;;;;;;;;;;4975117;28;20072;-75
2023/12/29 03:34:54;;;;;;;22.25;3.00;;;;;;;;;;4972842;28;20445;-75
2023/12/29 03:37:20;;;;;;;32.17;5.35;;;;;;;;;;4975490;28;20042;-77
2023/12/29 03:39:46;;;;;;;28.77;5.28;;;;;;;;;;4975982;28;20151;-74
2023/12/29 03:42:13;;;;;;;22.02;4.57;;;;;;;;;;4988766;28;20218;-84
2023/12/29 03:44:39;;;;;;;27.33;3.45;;;;;;;;;;4990356;28;20064;-83
2023/12/29 03:47:05;;;;;;;30.65;3.90;;;;;;;;;;4976054;28;20049;-82
2023/12/29 03:49:31;;;;;;;25.23;4.22;;;;;;;;;;4977118;28;20045;-82
2023/12/29 03:51:57;;;;;;;28.30;4.28;;;;;;;;;;4959751;28;20438;-82
2023/12/29 03:54:23;;;;;;;29.10;4.18;;;;;;;;;;4990668;28;20540;-75
2023/12/29 03:56:49;;;;;;;23.55;4.30;;;;;;;;;;4976977;28;20042;-78
2023/12/29 03:59:15;;;;;;;24.60;3.45;;;;;;;;;;4991468;28;20473;-76
2023/12/29 04:01:41;;;;;;;30.08;5.97;;;;;;;;;;4975626;28;20501;-75
2023/12/29 04:04:07;;;;;;;28.63;4.68;;;;;;;;;;4959243;28;20394;-75
2023/12/29 04:06:33;;;;;;;12.75;2.95;;;;;;;;;;4989873;28;20046;-75
2023/12/29 04:09:00;;;;;;;27.98;4.30;;;;;;;;;;4976191;28;20077;-75
2023/12/29 04:11:26;;;;;;;22.15;5.13;;;;;;;;;;4975956;28;20516;-77
2023/12/29 04:13:52;;;;;;;22.88;4.40;;;;;;;;;;4976697;28;20042;-75
2023/12/29 04:16:18;;;;;;;26.27;4.50;;;;;;;;;;4985458;28;20575;-76
2023/12/29 04:18:44;;;;;;;26.67;6.18;;;;;;;;;;4975596;28;20046;-76
2023/12/29 04:21:14;;;;;;;16.00;3.30;;;;;;;;;;4974876;28;20095;-77
2023/12/29 04:23:41;;;;;;;29.38;4.50;;;;;;;;;;4973531;28;20485;-77
2023/12/29 04:26:08;;;;;;;21.25;4.13;;;;;;;;;;4989485;28;20093;-74
2023/12/29 04:28:34;;;;;;;27.73;4.78;;;;;;;;;;4959036;28;20128;-77
2023/12/29 04:31:00;;;;;;;20.80;3.30;;;;;;;;;;4975106;28;20033;-75
2023/12/29 04:33:26;;;;;;;35.83;4.60;;;;;;;;;;4988059;28;20041;-77
2023/12/29 04:35:52;;;;;;;15.73;3.58;;;;;;;;;;4988586;28;20107;-76
2023/12/29 04:38:19;;;;;;;21.13;4.53;;;;;;;;;;4980284;28;20038;-75
2023/12/29 04:40:47;;;;;;;19.75;3.80;;;;;;;;;;4989179;28;20204;-75
2023/12/29 04:43:13;;;;;;;29.55;4.20;;;;;;;;;;4976074;28;20050;-75
2023/12/29 04:45:39;;;;;;;15.73;3.38;;;;;;;;;;4973596;28;20058;-76
2023/12/29 04:48:05;;;;;;;25.55;4.18;;;;;;;;;;4972347;28;20042;-76
2023/12/29 04:50:31;;;;;;;27.95;5.82;;;;;;;;;;4975652;28;20072;-76
2023/12/29 04:52:57;;;;;;;20.67;4.10;;;;;;;;;;4957750;28;20508;-77
2023/12/29 04:55:23;;;;;;;23.45;4.22;;;;;;;;;;4972868;28;20103;-75
2023/12/29 04:57:49;;;;;;;25.65;4.50;;;;;;;;;;4959560;28;20046;-76
2023/12/29 05:00:16;;;;;;;20.27;4.30;;;;;;;;;;4982629;28;20192;-75
2023/12/29 05:02:42;;;;;;;22.00;3.75;;;;;;;;;;4982857;28;20042;-75
2023/12/29 05:05:08;;;;;;;21.33;3.75;;;;;;;;;;4968954;28;20050;-74
2023/12/29 05:07:34;;;;;;;19.17;3.35;;;;;;;;;;4980462;28;20041;-76
2023/12/29 05:10:00;;;;;;;24.58;4.32;;;;;;;;;;4967700;28;20053;-77
2023/12/29 05:12:26;;;;;;;26.10;5.35;;;;;;;;;;4970926;28;20041;-76
2023/12/29 05:14:52;;;;;;;21.05;4.28;;;;;;;;;;4968659;28;20088;-75
2023/12/29 05:17:18;;;;;;;15.85;3.05;;;;;;;;;;4968206;28;20053;-78
2023/12/29 05:19:44;;;;;;;18.80;3.40;;;;;;;;;;4985899;28;20539;-75
2023/12/29 05:22:15;;;;;;;17.65;3.22;;;;;;;;;;4986323;28;20164;-77
2023/12/29 05:24:42;;;;;;;20.80;3.85;;;;;;;;;;4983588;28;20466;-84
2023/12/29 05:27:08;;;;;;;17.25;3.80;;;;;;;;;;4966758;28;20128;-82
2023/12/29 05:29:34;;;;;;;21.70;3.17;;;;;;;;;;4982340;28;20049;-84
2023/12/29 05:32:02;;;;;;;19.42;2.95;;;;;;;;;;4967966;28;20125;-84
2023/12/29 05:34:28;;;;;;;24.83;3.63;;;;;;;;;;4968846;28;20060;-81
2023/12/29 05:36:54;;;;;;;27.48;3.80;;;;;;;;;;4968551;28;20034;-83
2023/12/29 05:39:20;;;;;;;26.80;4.07;;;;;;;;;;4970275;28;20037;-85
2023/12/29 05:41:46;;;;;;;15.75;3.03;;;;;;;;;;4983361;28;20440;-82
2023/12/29 05:44:13;;;;;;;19.88;4.28;;;;;;;;;;4965700;28;20058;-79
2023/12/29 05:46:39;;;;;;;13.45;3.10;;;;;;;;;;4970058;28;20056;-78
2023/12/29 05:49:05;;;;;;;18.60;4.03;;;;;;;;;;4971077;28;20063;-79
2023/12/29 05:51:31;;;;;;;23.25;3.60;;;;;;;;;;4971083;28;20050;-76
2023/12/29 05:53:57;;;;;;;20.85;3.53;;;;;;;;;;4974277;28;20320;-79
2023/12/29 05:56:23;;;;;;;20.85;4.55;;;;;;;;;;4986263;28;20038;-75
2023/12/29 05:58:49;;;;;;;27.13;4.28;;;;;;;;;;4968294;28;20124;-75
2023/12/29 06:01:15;;;;;;;19.23;3.67;;;;;;;;;;4970511;28;20050;-75
2023/12/29 06:03:42;;;;;;;26.52;4.30;;;;;;;;;;4984287;28;20076;-76
2023/12/29 06:06:08;;;;;;;14.60;3.45;;;;;;;;;;4973561;28;20500;-75
2023/12/29 06:08:34;;;;;;;25.58;6.15;;;;;;;;;;4969747;28;20136;-76
2023/12/29 06:11:00;;;;;;;21.05;3.65;;;;;;;;;;4988328;28;20033;-75
2023/12/29 06:13:26;;;;;;;24.48;3.95;;;;;;;;;;4984017;28;20096;-75
2023/12/29 06:15:52;;;;;;;22.42;4.13;;;;;;;;;;4976100;28;20524;-75
2023/12/29 06:18:18;;;;;;;23.80;4.13;;;;;;;;;;4987107;28;20501;-77
2023/12/29 06:20:44;;;;;;;21.98;4.30;;;;;;;;;;4990004;28;20045;-76
2023/12/29 06:23:10;;;;;;;26.88;6.00;;;;;;;;;;4971694;28;20053;-75
2023/12/29 06:25:39;;;;;;;24.70;3.47;;;;;;;;;;4987713;28;20061;-76
2023/12/29 06:28:06;;;;;;;19.35;4.43;;;;;;;;;;4976374;28;20493;-77
2023/12/29 06:30:32;;;;;;;25.58;4.00;;;;;;;;;;4988904;28;20045;-76
2023/12/29 06:32:58;;;;;;;26.90;4.05;;;;;;;;;;4974754;28;20397;-77
2023/12/29 06:35:24;;;;;;;14.68;3.88;;;;;;;;;;4976798;28;20385;-83
2023/12/29 06:37:50;;;;;;;19.58;3.13;;;;;;;;;;4973269;28;20072;-84
2023/12/29 06:40:17;;;;;;;19.98;4.75;;;;;;;;;;4980053;28;20128;-82
2023/12/29 06:42:43;;;;;;;21.60;4.65;;;;;;;;;;4988907;28;20044;-83
2023/12/29 06:45:09;;;;;;;18.58;3.53;;;;;;;;;;4974048;28;20065;-85
2023/12/29 06:47:35;;;;;;;26.67;4.07;;;;;;;;;;4958505;28;20473;-84
2023/12/29 06:50:03;;;;;;;24.83;4.45;;;;;;;;;;4973429;28;22657;-84
2023/12/29 06:52:33;;;;;;;20.92;4.93;;;;;;;;;;4969398;28;20037;-85
2023/12/29 06:55:00;;;;;;;33.05;4.70;;;;;;;;;;4973295;28;20038;-76
2023/12/29 06:57:27;;;;;;;16.85;2.38;;;;;;;;;;4992300;28;20056;-74
2023/12/29 06:59:53;;;;;;;26.88;4.50;;;;;;;;;;4993806;28;20034;-75
2023/12/29 07:02:19;;;;;;;17.92;3.25;;;;;;;;;;4972820;28;20033;-75
2023/12/29 07:04:45;;;;;;;20.60;3.17;;;;;;;;;;4991797;28;20497;-74
2023/12/29 07:07:11;;;;;;;29.50;3.00;;;;;;;;;;4975729;28;20485;-75
2023/12/29 07:09:40;;;;;;;23.42;3.63;;;;;;;;;;4974781;28;20038;-74
2023/12/29 07:12:07;;;;;;;20.98;4.22;;;;;;;;;;4978855;28;20557;-74
2023/12/29 07:14:35;;;;;;;17.65;3.45;;;;;;;;;;4974454;28;20038;-75
2023/12/29 07:17:01;;;;;;;24.92;4.18;;;;;;;;;;4993237;28;20048;-75
2023/12/29 07:19:33;;;;;;;29.88;4.68;;;;;;;;;;4992002;28;20038;-76
2023/12/29 07:21:59;;;;;;;18.60;3.08;;;;;;;;;;4993688;28;20498;-74
2023/12/29 07:24:26;;;;;;;35.65;6.03;;;;;;;;;;4978117;28;20109;-73
2023/12/29 07:26:52;;;;;;;14.93;3.80;;;;;;;;;;4979632;28;20722;-73
2023/12/29 07:29:18;;;;;;;30.00;3.78;;;;;;;;;;4982288;28;20042;-73
2023/12/29 07:31:44;;;;;;;20.65;3.63;;;;;;;;;;4993027;28;20128;-73
2023/12/29 07:34:10;;;;;;;31.45;4.78;;;;;;;;;;4991172;28;20107;-73
2023/12/29 07:36:39;;;;;;;32.47;4.38;;;;;;;;;;4975053;28;20050;-76
2023/12/29 07:39:05;;;;;;;27.30;4.03;;;;;;;;;;4979596;28;20052;-74
2023/12/29 07:41:31;;;;;;;19.10;4.25;;;;;;;;;;4995534;28;20049;-74
2023/12/29 07:43:57;;;;;;;22.13;3.55;;;;;;;;;;4979500;28;20073;-80
2023/12/29 07:46:27;;;;;;;21.75;3.28;;;;;;;;;;4997747;28;20058;-81
2023/12/29 07:48:53;;;;;;;27.83;3.97;;;;;;;;;;4996538;28;20371;-82
2023/12/29 07:51:19;;;;;;;21.27;4.50;;;;;;;;;;4994531;28;20068;-82
2023/12/29 07:53:45;;;;;;;21.15;3.75;;;;;;;;;;4994821;28;20057;-82
2023/12/29 07:56:11;;;;;;;16.60;3.40;;;;;;;;;;4976906;28;20041;-82
2023/12/29 07:58:37;;;;;;;21.73;3.72;;;;;;;;;;4993507;28;20133;-80
2023/12/29 08:01:04;;;;;;;22.65;3.33;;;;;;;;;;4975542;28;20073;-82
2023/12/29 08:03:32;;;;;;;15.20;2.88;;;;;;;;;;4975440;28;20429;-83
2023/12/29 08:05:58;;;;;;;26.35;3.83;;;;;;;;;;4989665;28;20030;-74
2023/12/29 08:08:24;;;;;;;29.35;3.83;;;;;;;;;;4975217;28;20117;-74
2023/12/29 08:10:51;;;;;;;13.88;3.10;;;;;;;;;;4974210;28;20037;-74
2023/12/29 08:13:17;;;;;;;28.67;4.78;;;;;;;;;;4962841;28;20069;-73
2023/12/29 08:15:43;;;;;;;22.40;3.67;;;;;;;;;;4986837;28;20038;-75
2023/12/29 08:18:09;;;;;;;26.50;3.72;;;;;;;;;;4975481;28;20089;-75
2023/12/29 08:20:35;;;;;;;35.28;4.80;;;;;;;;;;4989626;28;20458;-76
2023/12/29 08:23:02;;;;;;;24.88;4.13;;;;;;;;;;4960416;28;20077;-75
2023/12/29 08:25:29;;;;;;;23.17;4.28;;;;;;;;;;4990831;28;20494;-74
2023/12/29 08:27:56;;;;;;;21.23;3.67;;;;;;;;;;4990800;28;20359;-76
2023/12/29 08:30:22;;;;;;;16.33;3.28;;;;;;;;;;4992362;28;20056;-74
2023/12/29 08:32:48;;;;;;;20.52;4.28;;;;;;;;;;4994566;28;20034;-74
2023/12/29 08:35:14;;;;;;;19.77;4.22;;;;;;;;;;4987415;28;20371;-74
2023/12/29 08:37:40;;;;;;;26.10;3.85;;;;;;;;;;4975517;28;20099;-75
2023/12/29 08:40:07;;;;;;;15.60;3.05;;;;;;;;;;4969697;28;20504;-74
2023/12/29 08:42:33;;;;;;;17.58;4.38;;;;;;;;;;4975457;28;20072;-74
2023/12/29 08:45:00;;;;;;;21.80;3.30;;;;;;;;;;4978736;28;20181;-76
2023/12/29 08:47:26;;;;;;;20.95;3.25;;;;;;;;;;4974787;28;20056;-74
2023/12/29 08:49:54;;;;;;;19.27;3.58;;;;;;;;;;4956559;28;20030;-75
2023/12/29 08:52:20;;;;;;;24.77;3.40;;;;;;;;;;4975837;28;20496;-75
2023/12/29 08:54:47;;;;;;;14.85;2.88;;;;;;;;;;4992104;28;20095;-80
2023/12/29 08:57:13;;;;;;;24.98;3.58;;;;;;;;;;4993033;28;20037;-80
2023/12/29 08:59:39;;;;;;;28.05;4.50;;;;;;;;;;4969429;28;20374;-83
2023/12/29 09:02:05;;;;;;;20.13;3.47;;;;;;;;;;4958640;28;20049;-82
2023/12/29 09:04:31;;;;;;;25.58;4.53;;;;;;;;;;4986504;28;20092;-82
2023/12/29 09:06:57;;;;;;;14.77;2.70;;;;;;;;;;4956260;28;20401;-82
2023/12/29 09:09:24;;;;;;;29.33;4.82;;;;;;;;;;4989714;28;20087;-83
2023/12/29 09:11:50;;;;;;;16.20;2.55;;;;;;;;;;4991576;28;20562;-83
2023/12/29 09:14:16;;;;;;;24.52;4.22;;;;;;;;;;4973967;28;20048;-83
2023/12/29 09:16:46;;;;;;;16.90;3.42;;;;;;;;;;4990067;28;20045;-83
2023/12/29 09:19:12;;;;;;;22.42;4.90;;;;;;;;;;4958366;28;20467;-83
2023/12/29 09:21:38;;;;;;;22.08;3.85;;;;;;;;;;4974104;28;20029;-77
2023/12/29 09:24:04;;;;;;;24.00;3.63;;;;;;;;;;4987498;28;20070;-81
2023/12/29 09:26:30;;;;;;;23.30;3.72;;;;;;;;;;4986678;28;20041;-83
2023/12/29 09:28:58;;;;;;;26.25;4.53;;;;;;;;;;4975056;28;20505;-85
2023/12/29 09:31:27;;;;;;;20.40;3.10;;;;;;;;;;4990640;28;20386;-85
2023/12/29 09:33:53;;;;;;;21.38;3.88;;;;;;;;;;4984911;28;20046;-86
2023/12/29 09:36:19;;;;;;;21.27;3.00;;;;;;;;;;4979861;28;20048;-87
2023/12/29 09:38:46;;;;;;;18.65;3.50;;;;;;;;;;4992581;28;20045;-86
2023/12/29 09:41:14;;;;;;;15.48;2.95;;;;;;;;;;4953687;28;20489;-86
2023/12/29 09:43:42;;;;;;;13.25;2.42;;;;;;;;;;4971459;28;20050;-86
2023/12/29 09:46:09;;;;;;;25.45;3.42;;;;;;;;;;4983281;28;20046;-86
2023/12/29 09:48:37;;;;;;;26.52;3.35;;;;;;;;;;4977123;28;20038;-86
2023/12/29 09:51:06;;;;;;;18.15;3.63;;;;;;;;;;4976763;28;20147;-85
2023/12/29 09:53:35;;;;;;;18.42;3.85;;;;;;;;;;4979866;28;20036;-85
2023/12/29 09:56:01;;;;;;;27.38;4.05;;;;;;;;;;4982210;28;20091;-87
2023/12/29 09:58:27;;;;;;;29.15;4.50;;;;;;;;;;4978175;28;20038;-85
2023/12/29 10:00:53;;;;;;;27.88;4.57;;;;;;;;;;4975567;28;20192;-85
2023/12/29 10:03:19;;;;;;;16.73;3.60;;;;;;;;;;4970421;28;20382;-85
2023/12/29 10:05:49;;;;;;;18.65;4.05;;;;;;;;;;4972292;28;20184;-84
2023/12/29 10:08:15;;;;;;;24.90;3.60;;;;;;;;;;4995465;28;20060;-83
2023/12/29 10:10:42;;;;;;;15.98;3.17;;;;;;;;;;4976316;28;20037;-83
2023/12/29 10:13:10;;;;;;;24.75;4.20;;;;;;;;;;4993276;28;20124;-83
2023/12/29 10:15:46;;;;;;;20.23;3.95;;;;;;;;;;4986728;28;20552;-83
2023/12/29 10:18:15;;;;;;;20.38;3.45;;;;;;;;;;4976143;28;20033;-84
2023/12/29 10:20:41;;;;;;;30.27;4.82;;;;;;;;;;4987976;28;20095;-83
2023/12/29 10:23:16;;;;;;;19.27;4.07;;;;;;;;;;4973276;28;20076;-84
2023/12/29 10:25:42;;;;;;;20.33;4.80;;;;;;;;;;4989636;28;20057;-79
2023/12/29 10:28:10;;;;;;;19.75;3.40;;;;;;;;;;4986214;28;20045;-79
2023/12/29 10:30:37;;;;;;;17.63;3.55;;;;;;;;;;4991614;28;20042;-79
2023/12/29 10:33:04;;;;;;;24.08;3.00;;;;;;;;;;4989131;28;20034;-80
2023/12/29 10:35:31;;;;;;;21.27;3.40;;;;;;;;;;4989228;28;20390;-80
2023/12/29 10:38:13;;;;;;;19.60;3.75;;;;;;;;;;4972342;28;20034;-80
2023/12/29 10:40:39;;;;;;;24.05;4.38;;;;;;;;;;4973726;28;20773;-83
2023/12/29 10:43:07;;;;;;;12.82;2.65;;;;;;;;;;4987687;28;20497;-84
2023/12/29 10:45:34;;;;;;;26.05;4.63;;;;;;;;;;4958920;28;20568;-80
2023/12/29 10:48:01;;;;;;;13.05;3.25;;;;;;;;;;4971955;28;20050;-80
2023/12/29 10:50:28;;;;;;;15.70;3.47;;;;;;;;;;4987427;28;20176;-81
2023/12/29 10:53:13;;;;;;;30.73;4.18;;;10.00;99.90;;;;;;4988617;28;20088;-80
2023/12/29 10:55:39;;;;;;;11.80;2.15;;;;;;;;;;4972016;28;20444;-80
2023/12/29 10:58:05;;;;;;;21.80;3.75;;;;;;;;;;4986993;28;20578;-80
2023/12/29 11:00:35;;;;;;;17.67;2.60;;;;;;;;;;4988693;28;20046;-80
2023/12/29 11:03:01;;;;;;;21.70;3.88;;;;;;;;;;4990880;28;20490;-80
2023/12/29 11:05:28;;;;;;;18.42;3.22;;;;;;;;;;4986886;28;20100;-81
2023/12/29 11:07:54;;;;;;;14.35;2.97;;;;;;;;;;4984684;28;20474;-81
2023/12/29 11:10:21;;;;;;;19.83;3.08;;;;;;;;;;4972359;28;20509;-80
2023/12/29 11:12:48;;;;;;;18.05;2.97;;;;;;;;;;4973158;28;20056;-80
2023/12/29 11:15:14;;;;;;;19.60;3.35;;;;;;;;;;4978086;28;20042;-83
2023/12/29 11:17:49;;;;;;;21.92;3.45;;;;;;;;;;4975154;28;20053;-83
2023/12/29 11:20:16;;;;;;;16.20;2.67;;;;;;;;;;4986764;28;20057;-84
2023/12/29 11:22:43;;;;;;;15.43;2.63;;;;;;;;;;4973724;28;20050;-84
2023/12/29 11:25:09;;;;;;;25.02;4.43;;;;;;;;;;4974384;28;20046;-83
2023/12/29 11:27:35;;;;;;;20.77;2.08;;;;;;;;;;4989606;28;20046;-83
2023/12/29 11:30:04;;;;;;;13.02;3.50;;;;;;;;;;4986012;28;21066;-83
2023/12/29 11:32:36;;;;;;;11.90;2.38;;;;;;;;;;4974526;28;20042;-83
2023/12/29 11:35:07;;;;;;;13.02;2.70;;;;;;;;;;4976633;28;20040;-81
2023/12/29 11:37:33;;;;;;;14.77;2.78;;;;;;;;;;4984393;28;20223;-80
2023/12/29 11:39:59;;;;;;;11.70;2.35;;;;;;;;;;4985475;28;20266;-80
2023/12/29 11:42:31;;;;;;;15.60;2.95;;;;;;;;;;4972163;28;20049;-81
2023/12/29 11:44:57;;;;;;;20.15;2.88;;;;;;;;;;4990839;28;20113;-81
2023/12/29 11:47:39;;;;;;;16.02;2.85;;;;;;;;;;4955072;28;20053;-81
2023/12/29 11:50:05;;;;;;;14.07;2.15;;;;;;;;;;4976714;28;20128;-80
2023/12/29 11:52:35;;;;;;;18.42;4.18;;;;;;;;;;4973394;28;20082;-80
2023/12/29 11:55:19;;;;;;;20.27;2.67;;;;;;;;;;4987982;28;20038;-81
2023/12/29 11:57:45;;;;;;;17.30;3.45;;;;;;;;;;4989488;28;20049;-81
2023/12/29 12:00:12;;;;;;;12.48;2.50;;;;;;;;;;4976414;28;20034;-81
2023/12/29 12:02:38;;;;;;;13.98;2.65;;;;;;;;;;4975604;28;20064;-82
2023/12/29 12:05:04;;;;;;;10.80;2.17;;;;;;;;;;4987967;28;20166;-81
2023/12/29 12:07:33;;;;;;;17.25;2.63;;;;;;;;;;4959902;28;20200;-81
2023/12/29 12:10:29;;;;;;;13.45;3.38;;;11.90;99.90;;;;;;4994384;28;20100;-80
2023/12/29 12:12:57;;;;;;;14.20;3.47;;;;;;;;;;4969006;28;20049;-79
2023/12/29 12:15:30;;;;;;;18.02;3.03;;;;;;;;;;4978605;28;20064;-80
2023/12/29 12:17:56;;;;;;;19.35;5.20;;;;;;;;;;4991957;28;20056;-81
2023/12/29 12:20:23;;;;;;;14.23;2.83;;;;;;;;;;4991146;28;20049;-80
2023/12/29 12:22:59;;;;;;;16.50;2.97;;;;;;;;;;4977349;28;20038;-80
2023/12/29 12:25:28;;;;;;;13.75;2.85;;;;;;;;;;4990442;28;20040;-83
2023/12/29 12:27:55;;;;;;;12.88;2.55;;;;;;;;;;4960491;28;20675;-83
2023/12/29 12:30:21;;;;;;;14.60;2.30;;;;;;;;;;4958218;28;20034;-84
2023/12/29 12:32:47;;;;;;;14.07;3.13;;;;;;;;;;4975967;28;20069;-84
2023/12/29 12:35:18;;;;;;;14.02;2.63;;;;;;;;;;4991844;28;20409;-83
2023/12/29 12:37:44;;;;;;;13.50;2.40;;;;;;;;;;4974730;28;20124;-83
2023/12/29 12:40:12;;;;;;;11.65;2.42;;;;;;;;;;4977762;28;20401;-85
2023/12/29 12:42:41;;;;;;;11.73;2.95;;;;;;;;;;4989978;28;20123;-84
2023/12/29 12:45:11;;;;;;;18.83;2.50;;;;;;;;;;4960156;28;20126;-81
2023/12/29 12:47:53;;;;;;;12.23;2.30;;;;;;;;;;4978253;28;20046;-83
2023/12/29 12:50:20;;;;;;;14.30;2.20;;;;;;;;;;4973554;28;20486;-81
2023/12/29 12:52:46;;;;;;;13.80;2.95;;;;;;;;;;4971404;28;20049;-81
2023/12/29 12:55:14;;;;;;;13.60;2.53;;;;;;;;;;4986612;28;20132;-81
2023/12/29 12:57:40;;;;;;;10.60;2.00;;;;;;;;;;4990175;28;20038;-82
2023/12/29 13:00:08;;;;;;;13.23;2.55;;;;;;;;;;4979829;28;20389;-81
2023/12/29 13:02:35;;;;;;;15.15;2.88;;;;;;;;;;4993023;28;20045;-82
2023/12/29 13:05:05;;;;;;;8.90;2.55;;;;;;;;;;4974950;28;20121;-81
2023/12/29 13:07:31;;;;;;;16.17;3.15;;;;;;;;;;4972545;28;20037;-80
2023/12/29 13:09:58;;;;;;;18.42;2.53;;;;;;;;;;4987868;28;20037;-80
2023/12/29 13:12:24;;;;;;;9.88;2.30;;;;;;;;;;4958797;28;20052;-80
2023/12/29 13:14:51;;;;;;;10.88;1.98;;;;;;;;;;4988857;28;20041;-82
2023/12/29 13:17:20;;;;;;;20.75;3.20;;;;;;;;;;4988219;28;20053;-81
2023/12/29 13:19:47;;;;;;;15.50;3.25;;;;;;;;;;4979006;28;20505;-81
2023/12/29 13:22:14;;;;;;;12.80;2.20;;;;;;;;;;4973787;28;20037;-81
2023/12/29 13:24:47;;;;;;;15.07;3.30;;;;;;;;;;4975392;28;20060;-81
2023/12/29 13:27:14;;;;;;;17.95;2.95;;;;;;;;;;4960704;28;20060;-81
2023/12/29 13:29:44;;;;;;;13.80;2.78;;;;;;;;;;5006505;28;20037;-81
2023/12/29 13:32:23;;;;;;;19.60;3.05;;;;;;;;;;4976155;28;20053;-81
2023/12/29 13:34:52;;;;;;;13.93;2.47;;;;;;;;;;4973653;28;20038;-81
2023/12/29 13:37:23;;;;;;;11.30;2.05;;;;;;;;;;4973990;28;20038;-84
2023/12/29 13:39:55;;;;;;;11.68;2.53;;;;;;;;;;4973163;28;20037;-84
2023/12/29 13:42:23;;;;;;;14.18;2.13;;;;;;;;;;4972207;28;20034;-84
2023/12/29 13:44:50;;;;;;;11.55;2.15;;;;;;;;;;4986552;28;20053;-85
2023/12/29 13:47:16;;;;;;;21.02;4.30;;;;;;;;;;4974572;28;20080;-84
2023/12/29 13:49:43;;;;;;;17.75;2.47;;;;;;;;;;4988752;28;20046;-84
2023/12/29 13:52:09;;;;;;;13.43;2.42;;;;;;;;;;4989409;28;20033;-84
2023/12/29 13:54:45;;;;;;;15.27;2.55;;;;;;;;;;4969445;28;20373;-84
2023/12/29 13:57:12;;;;;;;19.50;2.90;;;;;;;;;;4987490;28;20042;-83
2023/12/29 13:59:39;;;;;;;17.30;2.63;;;;;;;;;;4989792;28;20141;-82
2023/12/29 14:02:21;;;;;;;13.30;2.25;;;;;;;;;;4988671;28;20050;-82
2023/12/29 14:04:47;;;;;;;8.88;2.28;;;;;;;;;;5005759;28;20599;-83
2023/12/29 14:07:14;;;;;;;13.60;2.45;;;;;;;;;;4991271;28;20450;-83
2023/12/29 14:09:40;;;;;;;11.07;2.53;;;;;;;;;;4986556;28;20050;-84
2023/12/29 14:12:07;;;;;;;15.25;2.20;;;;;;;;;;4989953;28;20046;-84
2023/12/29 14:14:33;;;;;;;6.63;1.92;;;;;;;;;;4971083;28;20485;-84
2023/12/29 14:16:59;;;;;;;14.18;2.63;;;;;;;;;;4978277;28;20046;-83
2023/12/29 14:19:25;;;;;;;14.10;2.40;;;;;;;;;;4959495;28;20565;-80
2023/12/29 14:21:55;;;;;;;12.10;2.58;;;;;;;;;;4974174;28;20132;-79
2023/12/29 14:24:21;;;;;;;19.85;2.75;;;;;;;;;;4992628;28;20397;-77
2023/12/29 14:26:53;;;;;;;15.13;2.28;;;;;;;;;;4955447;28;20049;-78
2023/12/29 14:29:20;;;;;;;12.93;2.22;;;;;;;;;;4974481;28;20172;-77
2023/12/29 14:31:46;;;;;;;13.50;3.30;;;;;;;;;;4972254;28;20041;-78